Accueil
METAR-TAF:

METAR-TAF

Aéroports :

Rock Springs - Sweetwater County Airport

Rock Springs, Wyoming, États-Unis

latitude: 41-35-39N, longitude: 109-03-55W, altitude: 2060 m

Observation

Le bulletin a été fait il y a 27 minutes, à 02:54 UTC
Vent 18 kt de ouest
Température 0°C
Humidité 80%
Pression 1017 hPa
Visibilité: 16.1 km
Ciel clair

METAR: KRKS 270254Z AUTO 27018KT 10SM CLR 00/M03 A3003 RMK AO2 PK WND 26026/0156 SLP180 T00001033 51025

Heure: 21:21 (03:21 UTC)

Prévision

Le bulletin a été fait il y a 3 heures et 48 minutes, à 23:33 UTC
Prévision valable du 27 à 00 UTC au 27 à 24 UTC
Vent 25 kt de ouest avec des rafales jusqu'à 35 kt
Visibilité: 10 km
Nuages fragmentés à une hauteur de 5000 ft
A partir de 27 à 0300 UTC
Vent 25 kt de ouest avec des rafales jusqu'à 35 kt
Visibilité: 10 km
Quelques nuages à une hauteur de 5000 ft

TAF: KRKS 262333Z 2700/2724 26025G35KT P6SM BKN050 FM270300 26025G35KT P6SM FEW050

Observations et prévisions météorologiques de plus de 4000 aéroports (messages METAR et TAF).

Les stations disponibles sont représentées par des disques jaunes et rouges sur la carte.

Passer la souris dessus pour voir le nom de la station.

Cliquer dessus pour voir les observations et prévisions météorologiques.

Pour changer de carte: cliquez sur les boutons verts avec une croix noire pour zoomer, sur le bouton vert avec un tiret pour effectuer un zoom arrière, ou sur les flèches vertes pour les cartes adjacentes.


METAR-TAF: